Time;durP1;ratioP1;P1;durP2;ratioP2;P2;SDS_P1;SDS_P2;PMS_P1;PMS_P2;Temp;Humidity;BMP_temperature;BMP_pressure;BME280_temperature;BME280_humidity;BME280_pressure;Samples;Min_cycle;Max_cycle;Signal;HPM_P1;HPM_P2
2023/03/24 00:00:10;;;;;;;4.80;4.17;;;16.80;99.90;;;;;;5023885;28;20418;-65
2023/03/24 00:02:40;;;;;;;6.37;4.30;;;16.70;99.90;;;;;;5020805;28;20440;-65
2023/03/24 00:05:08;;;;;;;4.40;3.63;;;16.70;99.90;;;;;;5031823;28;20509;-66
2023/03/24 00:07:37;;;;;;;4.53;3.77;;;16.70;99.90;;;;;;5029603;28;20869;-66
2023/03/24 00:10:05;;;;;;;4.83;3.87;;;16.60;99.90;;;;;;5030763;28;20789;-66
2023/03/24 00:12:31;;;;;;;4.83;3.87;;;16.60;99.90;;;;;;5025894;28;20473;-65
2023/03/24 00:15:01;;;;;;;4.50;3.67;;;16.50;99.90;;;;;;5024657;28;20461;-65
2023/03/24 00:17:28;;;;;;;5.20;3.90;;;16.50;99.90;;;;;;5027571;28;20446;-65
2023/03/24 00:19:54;;;;;;;5.37;3.53;;;16.50;99.90;;;;;;5028404;28;20462;-65
2023/03/24 00:22:20;;;;;;;6.20;4.10;;;16.50;99.90;;;;;;5031931;28;20421;-65
2023/03/24 00:24:46;;;;;;;7.37;3.57;;;16.50;99.90;;;;;;5033156;28;20931;-65
2023/03/24 00:27:12;;;;;;;4.23;3.60;;;16.40;99.90;;;;;;5031094;28;20212;-64
2023/03/24 00:29:39;;;;;;;5.33;3.73;;;16.40;99.90;;;;;;5028810;28;20792;-64
2023/03/24 00:32:05;;;;;;;8.63;3.67;;;16.40;99.90;;;;;;5024869;28;20467;-64
2023/03/24 00:34:30;;;;;;;3.87;3.27;;;16.40;99.90;;;;;;5026936;28;20502;-65
2023/03/24 00:36:56;;;;;;;4.50;3.80;;;16.30;99.90;;;;;;5027925;28;20476;-64
2023/03/24 00:39:22;;;;;;;4.93;3.57;;;16.30;99.90;;;;;;5027941;28;20187;-64
2023/03/24 00:41:48;;;;;;;4.57;3.50;;;16.30;99.90;;;;;;5032750;28;20442;-64
2023/03/24 00:44:18;;;;;;;5.20;3.90;;;16.30;99.90;;;;;;5024920;28;20188;-64
2023/03/24 00:46:45;;;;;;;4.47;3.30;;;16.30;99.90;;;;;;5024614;28;20201;-65
2023/03/24 00:49:12;;;;;;;10.03;4.37;;;16.30;99.90;;;;;;5035916;28;20442;-64
2023/03/24 00:51:41;;;;;;;4.00;3.40;;;16.20;99.90;;;;;;5029887;28;20454;-64
2023/03/24 00:54:09;;;;;;;4.90;3.60;;;16.20;99.90;;;;;;5032413;28;20419;-64
2023/03/24 00:56:39;;;;;;;4.70;3.83;;;16.20;99.90;;;;;;5036651;28;20466;-64
2023/03/24 00:59:05;;;;;;;4.40;3.60;;;16.20;99.90;;;;;;5030997;28;20847;-65
2023/03/24 01:01:33;;;;;;;4.60;3.90;;;16.20;99.90;;;;;;5029604;28;20439;-64
2023/03/24 01:04:00;;;;;;;4.93;3.50;;;16.20;99.90;;;;;;5031866;28;20422;-64
2023/03/24 01:06:26;;;;;;;3.67;3.10;;;16.20;99.90;;;;;;5032301;28;20466;-65
2023/03/24 01:08:52;;;;;;;5.60;3.80;;;16.20;99.90;;;;;;5024401;28;20465;-64
2023/03/24 01:11:24;;;;;;;5.40;3.93;;;16.20;99.90;;;;;;5028190;28;20644;-64
2023/03/24 01:13:52;;;;;;;5.57;3.90;;;16.20;99.90;;;;;;5031793;28;20439;-64
2023/03/24 01:16:18;;;;;;;5.90;4.33;;;16.20;99.90;;;;;;5032916;28;20441;-65
2023/03/24 01:18:44;;;;;;;5.77;3.83;;;16.20;99.90;;;;;;5030818;28;20446;-65
2023/03/24 01:21:10;;;;;;;7.00;3.97;;;16.20;99.90;;;;;;5028095;28;21626;-64
2023/03/24 01:23:37;;;;;;;5.70;3.90;;;16.20;99.90;;;;;;5035525;28;20274;-64
2023/03/24 01:26:08;;;;;;;5.60;3.67;;;16.20;99.90;;;;;;5035039;28;20438;-64
2023/03/24 01:28:39;;;;;;;5.77;3.63;;;16.20;99.90;;;;;;5036401;28;20515;-65
2023/03/24 01:31:07;;;;;;;4.70;3.90;;;16.20;99.90;;;;;;5028926;28;20430;-64
2023/03/24 01:33:33;;;;;;;4.63;3.70;;;16.20;99.90;;;;;;5026715;28;20431;-65
2023/03/24 01:35:59;;;;;;;5.37;3.90;;;16.20;99.90;;;;;;5033607;28;20519;-65
2023/03/24 01:38:24;;;;;;;5.87;4.10;;;16.20;99.90;;;;;;5030892;28;20516;-64
2023/03/24 01:40:51;;;;;;;5.30;3.80;;;16.20;99.90;;;;;;5030909;28;20197;-64
2023/03/24 01:43:25;;;;;;;6.40;4.20;;;16.20;99.90;;;;;;5031141;28;20184;-65
2023/03/24 01:46:17;;;;;;;5.20;3.77;;;16.20;99.90;;;;;;5031187;28;20427;-64
2023/03/24 01:48:51;;;;;;;9.30;4.20;;;16.20;99.90;;;;;;5032977;28;20566;-64
2023/03/24 01:51:38;;;;;;;4.43;3.87;;;16.20;99.90;;;;;;5033711;28;20949;-64
2023/03/24 01:54:10;;;;;;;8.00;4.77;;;16.20;99.90;;;;;;5038903;28;21016;-63
2023/03/24 01:56:40;;;;;;;5.57;3.50;;;16.20;99.90;;;;;;5028701;28;20952;-64
2023/03/24 01:59:10;;;;;;;3.97;3.10;;;16.20;99.90;;;;;;5026119;28;20450;-64
2023/03/24 02:01:36;;;;;;;5.27;4.17;;;16.20;99.90;;;;;;5024092;28;20489;-63
2023/03/24 02:04:05;;;;;;;9.20;3.83;;;16.20;99.90;;;;;;5026010;28;20492;-64
2023/03/24 02:06:39;;;;;;;7.03;4.00;;;16.20;99.90;;;;;;5024976;28;20454;-64
2023/03/24 02:09:07;;;;;;;4.90;3.63;;;16.20;99.90;;;;;;5028442;28;20557;-64
2023/03/24 02:11:35;;;;;;;4.90;3.63;;;16.20;99.90;;;;;;5030166;28;20919;-64
2023/03/24 02:14:02;;;;;;;5.20;3.67;;;16.30;99.90;;;;;;5033539;28;21513;-64
2023/03/24 02:16:50;;;;;;;5.40;3.60;;;16.30;99.90;;;;;;5025932;28;20520;-64
2023/03/24 02:19:52;;;;;;;7.83;3.60;;;16.20;99.90;;;;;;5030722;28;20451;-64
2023/03/24 02:22:21;;;;;;;4.77;3.60;;;16.30;99.90;;;;;;5026173;28;21028;-64
2023/03/24 02:25:05;;;;;;;6.90;3.80;;;16.20;99.90;;;;;;5034458;28;20422;-64
2023/03/24 02:27:57;;;;;;;4.17;3.50;;;16.20;99.90;;;;;;5025749;28;20513;-64
2023/03/24 02:30:39;;;;;;;5.70;4.00;;;16.20;99.90;;;;;;5030418;28;20435;-64
2023/03/24 02:33:35;;;;;;;4.73;3.73;;;16.20;99.90;;;;;;5022802;28;20454;-65
2023/03/24 02:36:38;;;;;;;5.90;4.40;;;16.20;99.90;;;;;;5022227;28;20861;-64
2023/03/24 02:39:41;;;;;;;4.40;3.90;;;16.20;99.90;;;;;;5024377;28;20427;-65
2023/03/24 02:42:31;;;;;;;4.57;4.17;;;16.20;99.90;;;;;;5026565;28;20446;-64
2023/03/24 02:45:25;;;;;;;5.40;4.50;;;16.20;99.90;;;;;;5027300;28;20438;-64
2023/03/24 02:48:18;;;;;;;5.40;3.63;;;16.20;99.90;;;;;;5032416;28;20466;-64
2023/03/24 02:51:06;;;;;;;4.63;4.00;;;16.20;99.90;;;;;;5028132;28;20437;-64
2023/03/24 02:53:58;;;;;;;4.63;4.00;;;16.10;99.90;;;;;;5028336;28;20765;-64
2023/03/24 02:56:44;;;;;;;4.13;3.70;;;16.00;99.90;;;;;;5029222;28;20451;-64
2023/03/24 02:59:21;;;;;;;4.50;4.00;;;16.00;99.90;;;;;;5027350;28;20428;-64
2023/03/24 03:02:00;;;;;;;4.53;3.67;;;16.00;99.90;;;;;;5030006;28;20426;-64
2023/03/24 03:04:45;;;;;;;6.20;3.80;;;16.00;99.90;;;;;;5030171;28;20570;-64
2023/03/24 03:07:15;;;;;;;5.60;4.27;;;16.00;99.90;;;;;;5027431;28;20454;-64
2023/03/24 03:09:48;;;;;;;5.30;3.80;;;16.10;99.90;;;;;;5030505;28;20419;-64
2023/03/24 03:12:18;;;;;;;6.10;4.03;;;16.10;99.90;;;;;;5028879;28;20518;-64
2023/03/24 03:14:49;;;;;;;5.70;3.93;;;16.10;99.90;;;;;;5031764;28;20438;-64
2023/03/24 03:17:19;;;;;;;4.43;3.93;;;16.10;99.90;;;;;;5027376;28;20480;-64
2023/03/24 03:20:06;;;;;;;5.83;4.50;;;16.10;99.90;;;;;;5021010;28;20478;-64
2023/03/24 03:22:43;;;;;;;5.00;3.67;;;16.10;99.90;;;;;;5029578;28;20465;-64
2023/03/24 03:25:12;;;;;;;4.77;4.27;;;16.10;99.90;;;;;;5029016;28;20449;-65
2023/03/24 03:27:40;;;;;;;4.63;3.87;;;16.10;99.90;;;;;;5026437;28;20532;-64
2023/03/24 03:30:17;;;;;;;4.50;3.90;;;16.10;99.90;;;;;;5030330;28;20978;-65
2023/03/24 03:32:53;;;;;;;5.07;3.33;;;16.10;99.90;;;;;;5025794;28;21003;-64
2023/03/24 03:35:38;;;;;;;4.50;3.43;;;16.10;99.90;;;;;;5028892;28;20422;-64
2023/03/24 03:38:18;;;;;;;5.27;4.03;;;16.00;99.90;;;;;;5020559;28;20472;-65
2023/03/24 03:40:58;;;;;;;6.37;3.73;;;16.00;99.90;;;;;;5024162;28;20444;-65
2023/03/24 03:43:25;;;;;;;8.83;4.50;;;16.10;99.90;;;;;;5027956;28;20504;-65
2023/03/24 03:45:50;;;;;;;4.80;4.10;;;16.10;99.90;;;;;;5023656;28;20928;-64
2023/03/24 03:48:17;;;;;;;4.63;4.10;;;15.90;99.90;;;;;;5024725;28;20516;-65
2023/03/24 03:50:43;;;;;;;4.70;4.20;;;15.80;99.90;;;;;;5031832;28;20435;-64
2023/03/24 03:53:12;;;;;;;5.03;4.30;;;15.80;99.90;;;;;;5030187;28;20429;-64
2023/03/24 03:55:37;;;;;;;5.33;4.07;;;15.70;99.90;;;;;;5026982;28;20187;-64
2023/03/24 03:58:03;;;;;;;4.60;3.97;;;15.80;99.90;;;;;;5027089;28;20459;-64
2023/03/24 04:00:30;;;;;;;5.20;4.50;;;15.90;99.90;;;;;;5029518;28;20554;-65
2023/03/24 04:03:16;;;;;;;6.37;4.13;;;15.80;99.90;;;;;;5030274;28;20184;-65
2023/03/24 04:06:02;;;;;;;7.30;4.63;;;15.80;99.90;;;;;;5031941;28;20422;-64
2023/03/24 04:08:47;;;;;;;6.10;4.07;;;15.80;99.90;;;;;;5030814;28;20936;-64
2023/03/24 04:11:38;;;;;;;6.30;5.23;;;15.60;99.90;;;;;;5026614;28;20904;-64
2023/03/24 04:14:39;;;;;;;5.03;4.50;;;15.60;99.90;;;;;;5026572;28;20807;-64
2023/03/24 04:17:15;;;;;;;5.47;4.33;;;15.50;99.90;;;;;;5027188;28;20443;-64
2023/03/24 04:20:25;;;;;;;4.57;4.17;;;15.50;99.90;;;;;;5030192;28;20879;-64
2023/03/24 04:23:13;;;;;;;8.20;5.10;;;15.40;99.90;;;;;;5028743;28;20801;-65
2023/03/24 04:26:03;;;;;;;7.07;6.37;;;15.40;99.90;;;;;;5041370;28;20414;-64
2023/03/24 04:28:38;;;;;;;5.90;4.93;;;15.40;99.90;;;;;;5032755;28;20978;-64
2023/03/24 04:31:25;;;;;;;6.70;4.90;;;15.40;99.90;;;;;;5033137;28;20460;-64
2023/03/24 04:34:02;;;;;;;6.27;5.40;;;15.40;99.90;;;;;;5029452;28;21073;-64
2023/03/24 04:36:41;;;;;;;6.17;5.30;;;15.30;99.90;;;;;;5031912;28;20447;-64
2023/03/24 04:39:11;;;;;;;5.50;5.00;;;15.30;99.90;;;;;;5028220;28;20531;-64
2023/03/24 04:41:38;;;;;;;6.30;4.70;;;15.20;99.90;;;;;;5031104;28;20434;-64
2023/03/24 04:44:04;;;;;;;8.40;5.90;;;15.20;99.90;;;;;;5029014;28;20453;-64
2023/03/24 04:46:31;;;;;;;7.43;5.87;;;15.10;99.90;;;;;;5032263;28;20450;-64
2023/03/24 04:48:57;;;;;;;6.63;5.83;;;15.00;99.90;;;;;;5032133;28;20195;-64
2023/03/24 04:51:23;;;;;;;6.87;5.80;;;14.90;99.90;;;;;;5031451;28;20497;-64
2023/03/24 04:53:49;;;;;;;6.70;5.97;;;14.90;99.90;;;;;;5036174;28;20203;-64
2023/03/24 04:56:17;;;;;;;9.20;7.00;;;14.80;99.90;;;;;;5028914;28;20474;-64
2023/03/24 04:58:43;;;;;;;7.50;6.67;;;14.80;99.90;;;;;;5028725;28;20318;-64
2023/03/24 05:01:08;;;;;;;9.37;7.10;;;14.70;99.90;;;;;;5029982;28;20447;-64
2023/03/24 05:03:36;;;;;;;7.40;6.70;;;14.70;99.90;;;;;;5032336;28;20984;-64
2023/03/24 05:06:04;;;;;;;8.63;6.40;;;14.70;99.90;;;;;;5029624;28;20563;-64
2023/03/24 05:08:30;;;;;;;7.03;6.30;;;14.70;99.90;;;;;;5031020;28;20458;-65
2023/03/24 05:10:56;;;;;;;7.67;6.77;;;14.70;99.90;;;;;;5028258;28;20569;-65
2023/03/24 05:13:22;;;;;;;9.63;6.43;;;14.60;99.90;;;;;;5032058;28;20430;-64
2023/03/24 05:15:48;;;;;;;11.93;6.33;;;14.70;99.90;;;;;;5024683;28;20461;-64
2023/03/24 05:18:13;;;;;;;7.43;6.13;;;14.70;99.90;;;;;;5027640;28;20208;-64
2023/03/24 05:20:39;;;;;;;7.00;6.30;;;14.70;99.90;;;;;;5028393;28;20215;-64
2023/03/24 05:23:05;;;;;;;7.33;6.47;;;14.70;99.90;;;;;;5025617;28;20335;-64
2023/03/24 05:25:30;;;;;;;7.00;5.77;;;14.70;99.90;;;;;;5037048;28;20192;-65
2023/03/24 05:27:56;;;;;;;6.47;5.67;;;14.60;99.90;;;;;;5034178;28;20632;-65
2023/03/24 05:30:22;;;;;;;6.00;5.40;;;14.70;99.90;;;;;;5029386;28;20192;-64
2023/03/24 05:32:47;;;;;;;7.30;6.47;;;14.70;99.90;;;;;;5030165;28;20216;-64
2023/03/24 05:35:13;;;;;;;6.63;5.93;;;14.70;99.90;;;;;;5033982;28;20671;-64
2023/03/24 05:37:39;;;;;;;5.97;5.30;;;14.80;99.90;;;;;;5026715;28;20196;-64
2023/03/24 05:40:05;;;;;;;7.33;6.33;;;14.70;99.90;;;;;;5032191;28;20191;-64
2023/03/24 05:42:31;;;;;;;5.90;5.17;;;14.70;99.90;;;;;;5034875;28;20183;-64
2023/03/24 05:44:57;;;;;;;7.07;5.70;;;14.70;99.90;;;;;;5031230;28;20435;-65
2023/03/24 05:47:22;;;;;;;7.90;5.87;;;14.70;99.90;;;;;;5029993;28;20625;-65
2023/03/24 05:49:49;;;;;;;7.20;5.53;;;14.70;99.90;;;;;;5028806;28;20247;-65
2023/03/24 05:52:15;;;;;;;6.80;6.07;;;14.90;99.90;;;;;;5034917;28;20523;-64
2023/03/24 05:54:41;;;;;;;8.27;6.33;;;14.80;99.90;;;;;;5032169;28;20856;-64
2023/03/24 05:57:11;;;;;;;7.33;6.10;;;14.80;99.90;;;;;;5030317;28;20539;-64
2023/03/24 05:59:36;;;;;;;8.90;6.60;;;14.80;99.90;;;;;;5030325;28;20415;-64
2023/03/24 06:02:02;;;;;;;7.93;5.97;;;14.80;99.90;;;;;;5031841;28;20483;-64
2023/03/24 06:04:29;;;;;;;10.40;7.00;;;14.80;99.90;;;;;;5032207;28;20185;-65
2023/03/24 06:06:57;;;;;;;8.40;6.40;;;14.90;99.90;;;;;;5033345;28;20581;-65
2023/03/24 06:09:24;;;;;;;6.70;6.00;;;14.90;99.90;;;;;;5026874;28;21149;-64
2023/03/24 06:11:50;;;;;;;8.37;6.40;;;15.00;99.90;;;;;;5028141;28;20427;-65
2023/03/24 06:14:16;;;;;;;7.00;6.30;;;15.00;99.90;;;;;;5032819;28;21141;-65
2023/03/24 06:16:41;;;;;;;8.53;6.80;;;15.00;99.90;;;;;;5032201;28;20200;-65
2023/03/24 06:19:07;;;;;;;11.20;6.50;;;15.00;99.90;;;;;;5026217;28;20191;-64
2023/03/24 06:21:33;;;;;;;6.33;5.47;;;15.10;99.90;;;;;;5030137;28;20752;-65
2023/03/24 06:23:59;;;;;;;8.70;6.83;;;15.10;99.90;;;;;;5033283;28;20194;-64
2023/03/24 06:26:25;;;;;;;6.77;6.00;;;15.10;99.90;;;;;;5030112;28;20996;-65
2023/03/24 06:28:51;;;;;;;9.70;6.00;;;15.20;99.90;;;;;;5029408;28;20685;-64
2023/03/24 06:31:20;;;;;;;8.43;6.37;;;15.20;99.90;;;;;;5029577;28;20437;-64
2023/03/24 06:33:47;;;;;;;6.47;5.87;;;15.30;99.90;;;;;;5036103;28;20491;-64
2023/03/24 06:36:13;;;;;;;8.77;6.00;;;15.30;99.90;;;;;;5031578;28;20430;-64
2023/03/24 06:38:40;;;;;;;6.53;5.93;;;15.20;99.90;;;;;;5031877;28;20454;-64
2023/03/24 06:41:06;;;;;;;7.17;5.70;;;15.20;99.90;;;;;;5029422;28;20489;-64
2023/03/24 06:43:32;;;;;;;6.97;5.23;;;15.10;99.90;;;;;;5033730;28;20510;-64
2023/03/24 06:45:59;;;;;;;6.40;5.60;;;15.10;99.90;;;;;;5031528;28;20443;-65
2023/03/24 06:48:25;;;;;;;7.17;5.60;;;15.00;99.90;;;;;;5030312;28;20466;-65
2023/03/24 06:50:52;;;;;;;6.47;5.37;;;14.90;99.90;;;;;;5022202;28;20435;-62
2023/03/24 06:53:20;;;;;;;5.43;4.77;;;14.80;99.90;;;;;;5030659;28;20410;-64
2023/03/24 06:55:46;;;;;;;6.97;5.27;;;14.80;99.90;;;;;;5032679;28;20500;-63
2023/03/24 06:58:13;;;;;;;6.57;5.70;;;14.80;99.90;;;;;;5027286;28;20451;-63
2023/03/24 07:00:40;;;;;;;5.20;4.70;;;14.80;99.90;;;;;;5026252;28;20424;-64
2023/03/24 07:03:06;;;;;;;5.80;5.07;;;14.70;99.90;;;;;;5031392;28;20970;-63
2023/03/24 07:05:37;;;;;;;5.87;4.63;;;14.70;99.90;;;;;;5030797;28;20921;-64
2023/03/24 07:08:02;;;;;;;6.40;5.13;;;14.80;99.90;;;;;;5026404;28;20477;-64
2023/03/24 07:10:28;;;;;;;7.37;5.73;;;14.60;99.90;;;;;;5029126;28;20414;-64
2023/03/24 07:12:54;;;;;;;5.90;5.40;;;14.60;99.90;;;;;;5028520;28;20184;-64
2023/03/24 07:15:19;;;;;;;10.00;5.93;;;14.60;99.90;;;;;;5022039;28;20242;-64
2023/03/24 07:17:45;;;;;;;6.73;5.10;;;14.60;99.90;;;;;;5023153;28;20209;-63
2023/03/24 07:20:11;;;;;;;6.17;5.40;;;14.60;99.90;;;;;;5026440;28;20208;-63
2023/03/24 07:22:36;;;;;;;10.10;5.80;;;14.60;99.90;;;;;;5029188;28;20185;-63
2023/03/24 07:25:04;;;;;;;6.30;5.10;;;14.50;99.90;;;;;;5033732;28;20234;-63
2023/03/24 07:27:33;;;;;;;6.17;5.57;;;14.40;99.90;;;;;;5025263;28;20221;-63
2023/03/24 07:30:00;;;;;;;7.27;5.20;;;14.40;99.90;;;;;;5026835;28;20453;-63
2023/03/24 07:32:28;;;;;;;6.77;5.70;;;14.40;99.90;;;;;;5029329;28;20444;-63
2023/03/24 07:34:54;;;;;;;8.60;5.90;;;14.30;99.90;;;;;;5028743;28;20436;-63
2023/03/24 07:37:20;;;;;;;7.37;6.10;;;14.30;99.90;;;;;;5027147;28;20455;-63
2023/03/24 07:39:46;;;;;;;5.87;5.37;;;14.30;99.90;;;;;;5031946;28;20197;-64
2023/03/24 07:42:12;;;;;;;5.97;5.20;;;14.40;99.90;;;;;;5026088;28;20430;-63
2023/03/24 07:44:37;;;;;;;6.40;5.40;;;14.40;99.90;;;;;;5031287;28;20704;-64
2023/03/24 07:47:03;;;;;;;7.93;5.33;;;14.40;99.90;;;;;;5030123;28;20208;-64
2023/03/24 07:49:28;;;;;;;8.70;4.90;;;14.30;99.90;;;;;;5017906;28;20387;-64
2023/03/24 07:51:54;;;;;;;6.00;5.30;;;14.40;99.90;;;;;;5030890;28;20198;-64
2023/03/24 07:54:20;;;;;;;6.10;5.03;;;14.20;99.90;;;;;;5028651;28;20203;-65
2023/03/24 07:56:46;;;;;;;5.67;4.87;;;14.20;99.90;;;;;;5029008;28;20721;-65
2023/03/24 07:59:11;;;;;;;7.27;4.60;;;14.30;99.90;;;;;;5029378;28;20445;-65
2023/03/24 08:01:37;;;;;;;5.57;4.63;;;14.40;99.90;;;;;;5033509;28;20222;-65
2023/03/24 08:04:05;;;;;;;4.07;3.67;;;14.50;99.90;;;;;;5030241;28;20221;-66
2023/03/24 08:06:30;;;;;;;6.17;4.53;;;14.60;99.90;;;;;;5032420;28;20200;-63
2023/03/24 08:08:56;;;;;;;5.33;3.90;;;14.70;99.90;;;;;;5032399;28;20711;-62
2023/03/24 08:11:21;;;;;;;5.20;3.90;;;14.60;99.90;;;;;;5022936;28;20563;-63
2023/03/24 08:13:47;;;;;;;4.20;3.80;;;14.60;99.90;;;;;;5030404;28;20282;-64
2023/03/24 08:16:13;;;;;;;6.93;4.57;;;14.70;99.90;;;;;;5027962;28;20180;-64
2023/03/24 08:18:38;;;;;;;3.80;3.40;;;14.60;99.90;;;;;;5028802;28;20215;-64
2023/03/24 08:21:04;;;;;;;4.87;3.70;;;14.50;99.90;;;;;;5033412;28;20630;-65
2023/03/24 08:23:30;;;;;;;3.83;3.13;;;14.60;99.90;;;;;;5021352;28;20184;-65
2023/03/24 08:25:56;;;;;;;3.00;2.70;;;14.70;99.90;;;;;;5040434;28;20434;-63
2023/03/24 08:28:22;;;;;;;3.67;3.20;;;14.70;99.90;;;;;;5036269;28;20470;-65
2023/03/24 08:30:48;;;;;;;4.30;3.33;;;14.90;99.90;;;;;;5035146;28;20175;-65
2023/03/24 08:33:15;;;;;;;3.73;3.33;;;15.00;99.90;;;;;;5022157;28;21578;-64
2023/03/24 08:35:41;;;;;;;3.30;3.00;;;15.00;99.90;;;;;;5028205;28;20193;-65
2023/03/24 08:38:09;;;;;;;3.17;2.83;;;15.00;99.90;;;;;;5031485;28;20520;-65
2023/03/24 08:40:37;;;;;;;4.30;2.77;;;15.00;99.90;;;;;;5026672;28;20442;-65
2023/03/24 08:43:09;;;;;;;7.43;3.70;;;14.90;99.90;;;;;;5030754;28;20942;-65
2023/03/24 08:45:35;;;;;;;3.80;3.40;;;15.00;99.90;;;;;;5033304;28;20524;-65
2023/03/24 08:48:04;;;;;;;4.07;3.50;;;15.00;99.90;;;;;;5022343;28;21392;-65
2023/03/24 08:50:33;;;;;;;4.00;2.83;;;15.00;99.90;;;;;;5031889;28;20438;-65
2023/03/24 08:53:00;;;;;;;3.70;3.30;;;15.00;99.90;;;;;;5032640;28;20440;-64
2023/03/24 08:55:26;;;;;;;4.27;3.13;;;15.10;99.90;;;;;;5031019;28;20422;-65
2023/03/24 08:57:52;;;;;;;3.20;2.90;;;15.20;99.90;;;;;;5037312;28;21004;-64
2023/03/24 09:00:19;;;;;;;4.57;2.97;;;15.30;99.90;;;;;;5018497;28;21535;-64
2023/03/24 09:02:47;;;;;;;3.47;3.17;;;15.30;99.90;;;;;;5030034;28;20473;-64
2023/03/24 09:05:14;;;;;;;4.03;2.80;;;15.40;99.90;;;;;;5034844;28;20428;-64
2023/03/24 09:07:40;;;;;;;5.40;3.23;;;15.40;99.90;;;;;;5036104;28;20503;-64
2023/03/24 09:10:08;;;;;;;3.23;2.80;;;15.50;99.90;;;;;;5026374;28;20462;-64
2023/03/24 09:12:37;;;;;;;3.90;3.20;;;15.60;99.90;;;;;;5031541;28;20952;-64
2023/03/24 09:15:05;;;;;;;7.30;3.27;;;15.50;99.90;;;;;;5026565;28;20443;-64
2023/03/24 09:17:31;;;;;;;3.77;3.37;;;15.40;99.90;;;;;;5030241;28;20568;-64
2023/03/24 09:19:57;;;;;;;3.83;3.50;;;15.60;99.90;;;;;;5030090;28;20468;-64
2023/03/24 09:22:23;;;;;;;6.80;4.00;;;15.50;99.90;;;;;;5027571;28;20837;-64
2023/03/24 09:24:50;;;;;;;4.70;3.07;;;15.60;99.90;;;;;;5030925;28;20188;-66
2023/03/24 09:27:16;;;;;;;4.30;3.90;;;15.60;99.90;;;;;;5030163;28;20769;-65
2023/03/24 09:29:42;;;;;;;6.00;4.63;;;15.70;99.90;;;;;;5028042;28;21153;-66
2023/03/24 09:32:08;;;;;;;3.90;3.30;;;15.80;99.90;;;;;;5033743;28;20553;-65
2023/03/24 09:34:35;;;;;;;3.97;3.50;;;15.80;99.90;;;;;;5029638;28;21191;-62
2023/03/24 09:37:00;;;;;;;5.30;3.63;;;15.80;99.90;;;;;;5025494;28;20222;-63
2023/03/24 09:39:26;;;;;;;5.23;3.40;;;15.70;99.90;;;;;;5024525;28;20439;-66
2023/03/24 09:41:54;;;;;;;4.10;3.70;;;15.70;99.90;;;;;;5033344;28;20176;-67
2023/03/24 09:44:36;;;;;;;3.80;3.33;;;15.80;99.90;;;;;;5032910;28;20432;-63
2023/03/24 09:47:23;;;;;;;5.00;3.57;;;15.80;99.90;;;;;;5037904;28;20484;-64
2023/03/24 09:49:51;;;;;;;3.40;3.10;;;15.90;99.90;;;;;;5029654;28;20434;-64
2023/03/24 09:52:23;;;;;;;4.30;3.40;;;15.90;99.90;;;;;;5027544;28;20457;-65
2023/03/24 09:54:53;;;;;;;3.40;2.80;;;16.00;99.90;;;;;;5032187;28;20501;-64
2023/03/24 09:57:27;;;;;;;3.67;2.90;;;16.00;99.90;;;;;;5025203;28;21028;-64
2023/03/24 09:59:53;;;;;;;3.50;2.60;;;16.00;99.90;;;;;;5031506;28;20469;-65
2023/03/24 10:02:21;;;;;;;3.40;2.70;;;16.00;99.90;;;;;;5026091;28;20519;-65
2023/03/24 10:04:47;;;;;;;6.27;3.97;;;15.90;99.90;;;;;;5026301;28;20181;-64
2023/03/24 10:07:19;;;;;;;2.97;2.63;;;15.90;99.90;;;;;;5025231;28;20498;-64
2023/03/24 10:09:52;;;;;;;5.33;3.10;;;15.90;99.90;;;;;;5021798;28;20418;-63
2023/03/24 10:12:30;;;;;;;3.93;2.90;;;16.00;99.90;;;;;;5025366;28;20496;-63
2023/03/24 10:15:14;;;;;;;4.13;2.53;;;15.90;99.90;;;;;;5029435;28;20434;-63
2023/03/24 10:17:46;;;;;;;3.27;2.47;;;16.00;99.90;;;;;;5026537;28;22543;-64
2023/03/24 10:20:31;;;;;;;3.70;2.57;;;16.00;99.90;;;;;;5028042;28;20458;-63
2023/03/24 10:23:12;;;;;;;3.30;3.00;;;15.90;99.90;;;;;;5024890;28;20426;-64
2023/03/24 10:25:50;;;;;;;3.53;2.73;;;16.00;99.90;;;;;;5029026;28;20442;-63
2023/03/24 10:28:40;;;;;;;3.30;2.90;;;15.90;99.90;;;;;;5032141;28;20565;-64
2023/03/24 10:31:12;;;;;;;5.40;3.00;;;15.90;99.90;;;;;;5024480;28;21075;-65
2023/03/24 10:33:43;;;;;;;3.20;2.70;;;15.90;99.90;;;;;;5026072;28;20801;-65
2023/03/24 10:36:16;;;;;;;3.50;2.80;;;15.90;99.90;;;;;;5028421;28;20442;-65
2023/03/24 10:38:43;;;;;;;3.83;2.87;;;16.00;99.90;;;;;;5028741;28;20431;-65
2023/03/24 10:41:21;;;;;;;3.00;2.70;;;16.10;99.90;;;;;;5028046;28;20553;-65
2023/03/24 10:43:50;;;;;;;3.87;2.70;;;16.20;99.90;;;;;;5030221;28;20442;-67
2023/03/24 10:46:21;;;;;;;4.00;2.47;;;16.30;99.90;;;;;;5026629;28;20786;-66
2023/03/24 10:48:49;;;;;;;3.30;2.87;;;16.40;99.90;;;;;;5031170;28;20627;-66
2023/03/24 10:51:19;;;;;;;2.97;2.53;;;16.50;99.90;;;;;;5025403;28;20443;-64
2023/03/24 10:53:49;;;;;;;2.70;2.10;;;16.50;99.90;;;;;;5028325;28;20430;-64
2023/03/24 10:56:18;;;;;;;3.40;2.93;;;16.60;99.90;;;;;;5031009;28;20447;-64
2023/03/24 10:58:46;;;;;;;3.03;2.70;;;16.60;99.90;;;;;;5024670;28;20450;-64
2023/03/24 11:01:29;;;;;;;3.67;2.80;;;16.60;99.90;;;;;;5018601;28;20458;-64
2023/03/24 11:04:05;;;;;;;3.63;2.40;;;16.60;99.90;;;;;;5025273;28;20447;-64
2023/03/24 11:06:32;;;;;;;2.60;2.30;;;16.60;99.90;;;;;;5027836;28;20477;-64
2023/03/24 11:09:09;;;;;;;2.20;1.83;;;16.50;99.90;;;;;;5025541;28;20504;-63
2023/03/24 11:11:35;;;;;;;2.90;2.30;;;16.40;99.90;;;;;;5023708;28;20427;-64
2023/03/24 11:14:01;;;;;;;4.70;2.40;;;16.50;99.90;;;;;;5021265;28;21165;-64
2023/03/24 11:16:39;;;;;;;2.70;2.30;;;16.40;99.90;;;;;;5028311;28;20204;-64
2023/03/24 11:19:16;;;;;;;2.90;2.57;;;16.40;99.90;;;;;;5022723;28;21032;-64
2023/03/24 11:21:42;;;;;;;3.13;2.83;;;16.40;99.90;;;;;;5036012;28;20458;-64
2023/03/24 11:24:17;;;;;;;4.00;2.33;;;16.30;99.90;;;;;;5028149;28;20439;-64
2023/03/24 11:26:55;;;;;;;3.40;2.87;;;16.50;99.90;;;;;;5027218;28;20462;-64
2023/03/24 11:29:24;;;;;;;2.90;2.33;;;16.60;99.90;;;;;;5028613;28;20462;-64
2023/03/24 11:32:00;;;;;;;3.73;2.40;;;16.70;99.90;;;;;;5028115;28;20470;-64
2023/03/24 11:34:33;;;;;;;2.80;2.10;;;16.70;99.90;;;;;;5030850;28;20486;-64
2023/03/24 11:37:07;;;;;;;2.80;2.10;;;16.60;99.90;;;;;;5025824;28;20455;-64
2023/03/24 11:39:34;;;;;;;3.10;2.40;;;16.60;99.90;;;;;;5029967;28;21313;-64
2023/03/24 11:42:15;;;;;;;5.53;2.43;;;16.60;99.90;;;;;;5030336;28;20445;-64
2023/03/24 11:44:44;;;;;;;2.67;2.40;;;16.50;99.90;;;;;;5030965;28;20475;-64
2023/03/24 11:47:17;;;;;;;3.60;2.40;;;16.40;99.90;;;;;;5031303;28;21142;-64
2023/03/24 11:49:50;;;;;;;3.43;2.50;;;16.40;99.90;;;;;;5029394;28;20455;-64
2023/03/24 11:52:32;;;;;;;4.10;2.47;;;16.10;99.90;;;;;;5029557;28;20426;-64
2023/03/24 11:54:57;;;;;;;4.93;2.13;;;15.80;99.90;;;;;;5029616;28;20881;-64
2023/03/24 11:57:52;;;;;;;3.20;1.80;;;15.50;99.90;;;;;;5019834;28;20461;-64
2023/03/24 12:00:25;;;;;;;7.33;1.70;;;15.10;99.90;;;;;;5028962;28;20207;-64
2023/03/24 12:03:27;;;;;;;2.90;1.70;;;14.90;99.90;;;;;;5022740;28;20785;-64
2023/03/24 12:06:05;;;;;;;3.93;1.90;;;14.20;99.90;;;;;;5025739;28;20500;-64
2023/03/24 12:08:59;;;;;;;4.00;1.90;;;13.70;99.90;;;;;;5021683;28;20467;-64
2023/03/24 12:11:41;;;;;;;5.73;1.77;;;13.40;99.90;;;;;;5022846;28;20430;-66
2023/03/24 12:14:08;;;;;;;4.77;2.10;;;13.10;99.90;;;;;;5025327;28;20431;-64
2023/03/24 12:16:46;;;;;;;6.67;2.00;;;13.20;99.90;;;;;;5025933;28;20443;-64
2023/03/24 12:19:32;;;;;;;4.50;2.37;;;13.10;99.90;;;;;;5022224;28;21109;-64
2023/03/24 12:22:12;;;;;;;5.60;2.17;;;13.20;99.90;;;;;;5024902;28;20443;-64
2023/03/24 12:24:46;;;;;;;5.83;2.20;;;13.20;99.90;;;;;;5029428;28;20693;-64
2023/03/24 12:27:27;;;;;;;6.27;1.97;;;13.30;99.90;;;;;;5011962;28;20467;-64
2023/03/24 12:30:32;;;;;;;4.83;2.00;;;13.40;99.90;;;;;;5023726;28;20426;-64
2023/03/24 12:33:16;;;;;;;10.47;2.57;;;13.50;99.90;;;;;;5026764;28;20494;-64
2023/03/24 12:35:42;;;;;;;4.50;1.80;;;13.40;99.90;;;;;;5022317;28;20948;-64
2023/03/24 12:38:44;;;;;;;8.30;2.50;;;13.40;99.90;;;;;;5025452;28;20512;-64
2023/03/24 12:41:23;;;;;;;5.70;2.17;;;13.60;99.90;;;;;;5025098;28;20192;-65
2023/03/24 12:44:34;;;;;;;7.93;2.90;;;13.40;99.90;;;;;;5028080;28;20509;-65
2023/03/24 12:47:14;;;;;;;5.13;2.20;;;13.60;99.90;;;;;;5027013;28;20485;-65
2023/03/24 12:50:17;;;;;;;4.10;2.07;;;13.60;99.90;;;;;;5028721;28;20553;-65
2023/03/24 12:53:11;;;;;;;2.87;1.77;;;13.70;99.90;;;;;;5030139;28;20435;-65
2023/03/24 12:55:53;;;;;;;7.90;2.67;;;13.80;99.90;;;;;;5031375;28;20438;-66
2023/03/24 12:58:29;;;;;;;3.40;1.80;;;13.80;99.90;;;;;;5030178;28;20438;-64
2023/03/24 13:00:55;;;;;;;14.43;2.30;;;13.70;99.90;;;;;;5029147;28;20978;-65
2023/03/24 13:03:45;;;;;;;5.50;1.83;;;13.80;99.90;;;;;;5030058;28;20439;-64
2023/03/24 13:06:19;;;;;;;5.80;2.10;;;13.90;99.90;;;;;;5029231;28;21591;-65
2023/03/24 13:08:54;;;;;;;5.93;2.23;;;13.90;99.90;;;;;;5033057;28;20552;-65